createdAt,value
2019-06-08T00:02:12.595Z,6.03
2019-06-08T00:04:42.423Z,5.93
2019-06-08T00:07:13.089Z,8.73
2019-06-08T00:09:42.939Z,6.53
2019-06-08T00:12:25.316Z,8.03
2019-06-08T00:15:14.668Z,7.37
2019-06-08T00:17:44.819Z,6.03
2019-06-08T00:20:21.751Z,7.30
2019-06-08T00:22:51.854Z,6.97
2019-06-08T00:25:40.566Z,5.00
2019-06-08T00:28:10.464Z,7.17
2019-06-08T00:30:49.940Z,7.10
2019-06-08T00:33:32.274Z,4.53
2019-06-08T00:36:02.252Z,6.63
2019-06-08T00:38:35.514Z,5.80
2019-06-08T00:41:11.871Z,6.87
2019-06-08T00:43:44.693Z,7.47
2019-06-08T00:46:17.248Z,6.70
2019-06-08T00:48:49.428Z,9.00
2019-06-08T00:51:19.325Z,7.67
2019-06-08T00:53:49.138Z,8.60
2019-06-08T00:56:19.441Z,10.00
2019-06-08T00:58:49.632Z,6.97
2019-06-08T01:01:24.623Z,7.93
2019-06-08T01:03:54.092Z,6.93
2019-06-08T01:06:24.977Z,8.27
2019-06-08T01:08:55.139Z,8.97
2019-06-08T01:11:28.898Z,8.13
2019-06-08T01:13:59.105Z,4.73
2019-06-08T01:16:29.300Z,3.37
2019-06-08T01:19:02.164Z,5.80
2019-06-08T01:21:32.319Z,16.10
2019-06-08T01:24:02.208Z,9.07
2019-06-08T01:26:32.248Z,6.13
2019-06-08T01:29:01.957Z,4.20
2019-06-08T01:31:31.865Z,4.67
2019-06-08T01:34:06.741Z,9.20
2019-06-08T01:36:44.015Z,10.37
2019-06-08T01:39:14.514Z,3.23
2019-06-08T01:41:45.274Z,9.77
2019-06-08T01:44:15.747Z,6.13
2019-06-08T01:46:48.328Z,5.93
2019-06-08T01:49:18.354Z,8.60
2019-06-08T01:51:48.421Z,7.43
2019-06-08T01:54:18.117Z,7.20
2019-06-08T01:56:47.956Z,5.70
2019-06-08T01:59:20.133Z,5.80
2019-06-08T02:01:52.805Z,6.63
2019-06-08T02:04:30.025Z,5.80
2019-06-08T02:07:00.080Z,6.23
2019-06-08T02:09:30.612Z,4.23
2019-06-08T02:12:01.129Z,6.07
2019-06-08T02:14:33.163Z,7.47
2019-06-08T02:17:03.459Z,7.03
2019-06-08T02:19:34.711Z,10.00
2019-06-08T02:22:04.693Z,6.33
2019-06-08T02:24:35.467Z,3.80
2019-06-08T02:27:05.560Z,5.87
2019-06-08T02:29:37.608Z,3.43
2019-06-08T02:32:07.488Z,10.50
2019-06-08T02:34:41.608Z,2.57
2019-06-08T02:37:11.324Z,3.00
2019-06-08T02:39:41.336Z,6.07
2019-06-08T02:42:19.900Z,5.57
2019-06-08T02:47:41.096Z,5.03
2019-06-08T02:50:12.968Z,7.10
2019-06-08T02:52:42.860Z,5.43
2019-06-08T02:55:13.262Z,4.83
2019-06-08T02:57:43.191Z,4.90
2019-06-08T03:00:13.068Z,7.80
2019-06-08T03:02:44.098Z,5.43
2019-06-08T03:05:14.063Z,4.07
2019-06-08T03:07:43.993Z,6.83
2019-06-08T03:10:13.944Z,8.77
2019-06-08T03:12:44.262Z,5.77
2019-06-08T03:15:54.042Z,6.53
2019-06-08T03:20:47.229Z,5.37
2019-06-08T03:23:36.048Z,5.63
2019-06-08T03:26:14.943Z,5.27
2019-06-08T03:28:53.506Z,9.50
2019-06-08T03:31:27.811Z,5.73
2019-06-08T03:33:58.709Z,3.57
2019-06-08T03:36:34.984Z,3.87
2019-06-08T03:39:05.675Z,5.57
2019-06-08T03:41:38.906Z,5.30
2019-06-08T03:44:24.683Z,5.27
2019-06-08T03:46:53.419Z,4.73
2019-06-08T03:49:40.426Z,7.13
2019-06-08T03:51:58.709Z,7.90
2019-06-08T03:54:30.365Z,6.63
2019-06-08T03:57:08.008Z,3.00
2019-06-08T03:59:38.599Z,4.20
2019-06-08T04:02:10.145Z,5.77
2019-06-08T04:04:41.747Z,5.50
2019-06-08T04:07:11.390Z,8.20
2019-06-08T04:09:45.813Z,3.73
2019-06-08T04:12:18.318Z,5.07
2019-06-08T04:14:48.265Z,9.20
2019-06-08T04:17:23.877Z,5.30
2019-06-08T04:20:09.756Z,4.73
2019-06-08T04:22:31.831Z,3.37
2019-06-08T04:25:02.143Z,7.13
2019-06-08T04:27:38.441Z,6.23
2019-06-08T04:30:08.534Z,6.20
2019-06-08T04:32:40.539Z,4.53
2019-06-08T04:35:10.113Z,6.20
2019-06-08T04:37:40.477Z,2.57
2019-06-08T04:40:11.239Z,5.07
2019-06-08T04:42:41.810Z,6.33
2019-06-08T04:45:12.624Z,7.33
2019-06-08T04:47:43.584Z,4.80
2019-06-08T04:50:22.886Z,7.40
2019-06-08T04:52:45.097Z,6.60
2019-06-08T04:55:15.200Z,5.60
2019-06-08T04:57:47.584Z,7.80
2019-06-08T05:00:15.989Z,4.57
2019-06-08T05:02:51.633Z,4.57
2019-06-08T05:05:41.110Z,5.47
2019-06-08T05:08:17.109Z,4.57
2019-06-08T05:10:50.008Z,5.30
2019-06-08T05:13:25.909Z,9.50
2019-06-08T05:15:55.740Z,5.50
2019-06-08T05:18:26.078Z,4.77
2019-06-08T05:20:55.905Z,6.80
2019-06-08T05:23:25.639Z,5.27
2019-06-08T05:25:55.463Z,4.53
2019-06-08T05:28:25.875Z,5.20
2019-06-08T05:30:55.845Z,7.30
2019-06-08T05:33:25.548Z,6.60
2019-06-08T05:35:55.193Z,5.47
2019-06-08T05:38:24.917Z,5.80
2019-06-08T05:40:54.798Z,6.07
2019-06-08T05:43:25.325Z,8.53
2019-06-08T05:45:55.259Z,5.13
2019-06-08T05:48:24.969Z,7.20
2019-06-08T05:51:03.012Z,6.27
2019-06-08T05:53:25.969Z,6.00
2019-06-08T05:55:55.741Z,9.77
2019-06-08T05:58:25.473Z,6.73
2019-06-08T06:00:55.379Z,5.83
2019-06-08T06:03:25.105Z,9.93
2019-06-08T06:05:57.427Z,6.20
2019-06-08T06:08:27.502Z,8.10
2019-06-08T06:11:14.536Z,5.60
2019-06-08T06:13:45.141Z,8.77
2019-06-08T06:16:15.296Z,7.67
2019-06-08T06:18:54.344Z,8.43
2019-06-08T06:21:24.274Z,7.63
2019-06-08T06:23:53.885Z,6.80
2019-06-08T06:26:23.621Z,4.97
2019-06-08T06:28:53.290Z,6.97
2019-06-08T06:31:23.113Z,7.37
2019-06-08T06:33:54.352Z,8.40
2019-06-08T06:36:24.217Z,8.20
2019-06-08T06:38:54.000Z,7.13
2019-06-08T06:41:23.813Z,6.97
2019-06-08T06:43:53.461Z,6.37
2019-06-08T06:46:23.348Z,5.50
2019-06-08T06:48:53.612Z,6.83
2019-06-08T06:51:26.650Z,6.57
2019-06-08T06:53:55.083Z,6.53
2019-06-08T06:56:24.793Z,6.20
2019-06-08T06:58:54.875Z,7.10
2019-06-08T07:01:24.662Z,8.27
2019-06-08T07:03:54.655Z,5.83
2019-06-08T07:06:24.594Z,8.97
2019-06-08T07:08:56.665Z,10.33
2019-06-08T07:11:26.313Z,7.97
2019-06-08T07:13:56.566Z,9.07
2019-06-08T07:16:26.486Z,11.87
2019-06-08T07:19:02.005Z,8.43
2019-06-08T07:21:41.618Z,10.17
2019-06-08T07:30:30.300Z,7.87
2019-06-08T07:33:03.806Z,7.63
2019-06-08T07:35:33.858Z,7.30
2019-06-08T07:38:03.392Z,8.97
2019-06-08T07:40:32.877Z,8.53
2019-06-08T07:43:02.191Z,7.40
2019-06-08T07:45:31.764Z,9.43
2019-06-08T07:48:01.221Z,10.50
2019-06-08T07:50:30.635Z,6.50
2019-06-08T07:53:00.443Z,9.50
2019-06-08T07:55:29.822Z,10.30
2019-06-08T07:58:00.704Z,8.27
2019-06-08T08:00:30.317Z,11.17
2019-06-08T08:02:59.677Z,10.03
2019-06-08T08:05:29.150Z,8.90
2019-06-08T08:07:58.986Z,7.43
2019-06-08T08:10:28.694Z,7.30
2019-06-08T08:12:58.924Z,9.13
2019-06-08T08:15:53.971Z,6.13
2019-06-08T08:18:03.774Z,8.23
2019-06-08T08:20:34.924Z,9.13
2019-06-08T08:23:06.917Z,7.83
2019-06-08T08:25:37.914Z,11.40
2019-06-08T08:28:17.695Z,9.93
2019-06-08T08:30:41.369Z,9.63
2019-06-08T08:33:11.173Z,15.40
2019-06-08T08:35:40.503Z,10.13
2019-06-08T08:38:10.153Z,11.33
2019-06-08T08:40:39.818Z,11.20
2019-06-08T08:43:09.565Z,13.17
2019-06-08T08:45:39.168Z,7.53
2019-06-08T08:48:23.889Z,9.10
2019-06-08T08:50:39.819Z,11.50
2019-06-08T08:53:09.271Z,10.60
2019-06-08T08:55:38.961Z,12.30
2019-06-08T08:58:08.520Z,9.83
2019-06-08T09:00:41.182Z,8.63
2019-06-08T09:03:26.036Z,10.03
2019-06-08T09:05:40.518Z,7.47
2019-06-08T09:08:09.895Z,9.20
2019-06-08T09:10:39.218Z,9.43
2019-06-08T09:13:09.264Z,13.03
2019-06-08T09:15:39.539Z,9.57
2019-06-08T09:18:08.842Z,11.57
2019-06-08T09:20:38.316Z,10.03
2019-06-08T09:23:15.799Z,11.00
2019-06-08T09:25:40.548Z,8.33
2019-06-08T09:28:09.778Z,11.67
2019-06-08T09:30:39.220Z,11.77
2019-06-08T09:33:08.669Z,10.80
2019-06-08T09:35:38.132Z,10.87
2019-06-08T09:38:08.560Z,13.20
2019-06-08T09:40:39.189Z,11.33
2019-06-08T09:43:12.771Z,10.90
2019-06-08T09:45:39.421Z,11.83
2019-06-08T09:48:09.403Z,13.33
2019-06-08T09:50:38.938Z,8.57
2019-06-08T09:53:23.213Z,13.77
2019-06-08T09:55:41.367Z,11.47
2019-06-08T09:58:11.880Z,13.97
2019-06-08T10:00:41.498Z,13.20
2019-06-08T10:03:11.822Z,13.80
2019-06-08T10:05:41.298Z,13.87
2019-06-08T10:08:20.265Z,14.07
2019-06-08T10:10:48.425Z,15.27
2019-06-08T10:13:18.942Z,16.73
2019-06-08T10:15:51.461Z,12.47
2019-06-08T10:18:19.831Z,15.10
2019-06-08T10:20:49.505Z,12.83
2019-06-08T10:23:30.735Z,11.13
2019-06-08T10:25:50.486Z,13.33
2019-06-08T10:28:21.724Z,8.57
2019-06-08T10:30:51.209Z,12.27
2019-06-08T10:33:20.583Z,13.87
2019-06-08T10:35:50.033Z,9.87
2019-06-08T10:38:19.363Z,11.50
2019-06-08T10:41:07.127Z,11.10
2019-06-08T10:43:31.846Z,10.10
2019-06-08T10:46:08.399Z,13.50
2019-06-08T10:48:32.525Z,12.77
2019-06-08T10:51:03.754Z,10.70
2019-06-08T10:53:46.545Z,12.63
2019-06-08T10:56:05.597Z,11.17
2019-06-08T10:58:35.221Z,13.67
2019-06-08T11:01:07.857Z,14.67
2019-06-08T11:03:38.666Z,13.63
2019-06-08T11:06:12.880Z,13.07
2019-06-08T11:08:40.217Z,11.87
2019-06-08T11:11:11.893Z,13.03
2019-06-08T11:13:41.020Z,11.33
2019-06-08T11:16:13.247Z,13.37
2019-06-08T11:18:41.497Z,12.37
2019-06-08T11:21:12.848Z,9.27
2019-06-08T11:23:42.389Z,8.30
2019-06-08T11:26:19.588Z,7.20
2019-06-08T11:28:42.840Z,7.50
2019-06-08T11:31:15.843Z,8.07
2019-06-08T11:33:43.462Z,11.17
2019-06-08T11:36:14.932Z,11.40
2019-06-08T11:38:44.046Z,12.80
2019-06-08T11:41:13.827Z,15.03
2019-06-08T11:43:43.687Z,13.10
2019-06-08T11:46:13.130Z,14.07
2019-06-08T11:48:42.513Z,14.77
2019-06-08T11:51:13.151Z,12.73
2019-06-08T11:53:42.882Z,10.27
2019-06-08T11:56:13.575Z,10.43
2019-06-08T11:58:43.149Z,17.03
2019-06-08T12:01:14.725Z,16.97
2019-06-08T12:03:43.402Z,18.90
2019-06-08T12:06:14.467Z,13.90
2019-06-08T12:08:43.994Z,13.10
2019-06-08T12:11:18.205Z,17.80
2019-06-08T12:13:44.285Z,12.90
2019-06-08T12:16:15.780Z,13.47
2019-06-08T12:18:44.584Z,18.63
2019-06-08T12:21:14.652Z,17.07
2019-06-08T12:23:44.074Z,17.37
2019-06-08T12:26:14.551Z,14.07
2019-06-08T12:28:44.016Z,16.73
2019-06-08T12:31:18.547Z,13.73
2019-06-08T12:33:44.530Z,16.30
2019-06-08T12:36:15.677Z,14.83
2019-06-08T12:38:44.957Z,22.90
2019-06-08T12:41:15.696Z,13.97
2019-06-08T12:43:47.816Z,14.80
2019-06-08T12:46:19.123Z,10.83
2019-06-08T12:48:47.422Z,14.10
2019-06-08T12:51:19.411Z,12.77
2019-06-08T12:53:47.690Z,13.73
2019-06-08T12:56:22.200Z,15.77
2019-06-08T12:58:48.040Z,14.80
2019-06-08T13:01:17.289Z,10.37
2019-06-08T13:03:48.428Z,11.43
2019-06-08T13:06:18.312Z,14.93
2019-06-08T13:08:50.621Z,13.83
2019-06-08T13:11:21.261Z,19.07
2019-06-08T13:13:50.743Z,14.67
2019-06-08T13:16:24.489Z,10.07
2019-06-08T13:18:51.035Z,12.30
2019-06-08T13:21:33.343Z,14.90
2019-06-08T13:23:51.373Z,14.60
2019-06-08T13:26:27.491Z,12.93
2019-06-08T13:28:52.034Z,16.50
2019-06-08T13:31:24.160Z,15.00
2019-06-08T13:33:52.430Z,16.83
2019-06-08T13:36:26.294Z,15.20
2019-06-08T13:38:53.964Z,15.70
2019-06-08T13:41:26.042Z,11.37
2019-06-08T13:43:55.096Z,12.77
2019-06-08T13:46:24.462Z,13.57
2019-06-08T13:48:53.757Z,15.67
2019-06-08T13:51:24.187Z,12.90
2019-06-08T13:53:54.142Z,14.73
2019-06-08T13:56:24.065Z,14.03
2019-06-08T13:58:53.459Z,13.47
2019-06-08T14:01:23.773Z,10.30
2019-06-08T14:03:53.640Z,16.67
2019-06-08T14:06:23.722Z,12.87
2019-06-08T14:08:53.857Z,14.63
2019-06-08T14:11:24.089Z,11.70
2019-06-08T14:13:54.098Z,12.13
2019-06-08T14:16:24.930Z,12.20
2019-06-08T14:18:54.537Z,10.93
2019-06-08T14:21:31.999Z,13.43
2019-06-08T14:23:54.746Z,13.60
2019-06-08T14:26:24.735Z,13.63
2019-06-08T14:28:55.353Z,13.23
2019-06-08T14:31:25.657Z,12.17
2019-06-08T14:33:55.805Z,15.90
2019-06-08T14:36:26.623Z,18.83
2019-06-08T14:39:01.976Z,15.73
2019-06-08T14:41:31.157Z,18.23
2019-06-08T14:43:58.672Z,15.23
2019-06-08T14:46:28.747Z,18.50
2019-06-08T14:48:58.704Z,14.43
2019-06-08T14:51:47.826Z,13.50
2019-06-08T14:54:22.469Z,13.90
2019-06-08T14:56:49.036Z,15.07
2019-06-08T14:59:19.895Z,11.60
2019-06-08T15:01:49.238Z,13.47
2019-06-08T15:04:22.882Z,13.37
2019-06-08T15:06:49.578Z,17.13
2019-06-08T15:09:19.418Z,8.40
2019-06-08T15:11:48.888Z,14.87
2019-06-08T15:14:19.352Z,13.27
2019-06-08T15:16:49.358Z,13.07
2019-06-08T15:19:20.130Z,11.60
2019-06-08T15:21:49.620Z,11.67
2019-06-08T15:24:18.896Z,14.37
2019-06-08T15:26:48.704Z,12.83
2019-06-08T15:29:18.557Z,13.13
2019-06-08T15:31:48.431Z,16.63
2019-06-08T15:34:18.138Z,14.23
2019-06-08T15:36:47.785Z,14.70
2019-06-08T15:39:17.894Z,12.13
2019-06-08T15:41:48.810Z,16.80
2019-06-08T15:44:21.336Z,15.97
2019-06-08T15:46:49.498Z,18.53
2019-06-08T15:49:18.897Z,17.60
2019-06-08T15:51:48.307Z,13.17
2019-06-08T15:54:17.524Z,13.47
2019-06-08T15:56:51.774Z,15.13
2019-06-08T15:59:17.885Z,10.70
2019-06-08T16:01:47.138Z,13.67
2019-06-08T16:04:16.381Z,10.73
2019-06-08T16:06:45.903Z,13.17
2019-06-08T16:09:15.257Z,14.97
2019-06-08T16:11:44.598Z,18.43
2019-06-08T16:14:13.842Z,12.17
2019-06-08T16:16:43.152Z,12.50
2019-06-08T16:19:12.472Z,11.27
2019-06-08T16:21:41.916Z,17.40
2019-06-08T16:24:11.192Z,15.97
2019-06-08T16:26:52.164Z,13.80
2019-06-08T16:29:11.427Z,18.50
2019-06-08T16:31:40.826Z,11.53
2019-06-08T16:34:10.352Z,18.67
2019-06-08T16:36:40.129Z,12.17
2019-06-08T16:39:09.598Z,18.40
2019-06-08T16:41:58.125Z,17.80
2019-06-08T16:44:28.107Z,13.97
2019-06-08T16:46:57.548Z,20.87
2019-06-08T16:49:27.159Z,10.40
2019-06-08T16:51:56.547Z,10.97
2019-06-08T16:54:25.923Z,11.83
2019-06-08T16:57:08.881Z,11.90
2019-06-08T16:59:28.034Z,18.97
2019-06-08T17:01:57.497Z,14.77
2019-06-08T17:04:27.049Z,11.73
2019-06-08T17:06:56.257Z,13.33
2019-06-08T17:09:25.627Z,12.43
2019-06-08T17:11:55.396Z,12.43
2019-06-08T17:14:25.308Z,10.20
2019-06-08T17:16:54.730Z,14.90
2019-06-08T17:19:23.969Z,13.13
2019-06-08T17:21:53.204Z,14.37
2019-06-08T17:24:22.499Z,14.33
2019-06-08T17:26:51.774Z,11.60
2019-06-08T17:29:21.084Z,15.70
2019-06-08T17:31:50.453Z,12.40
2019-06-08T17:34:20.715Z,15.53
2019-06-08T17:36:50.182Z,16.33
2019-06-08T17:39:19.550Z,12.57
2019-06-08T17:41:48.825Z,15.77
2019-06-08T17:44:18.158Z,14.93
2019-06-08T17:46:47.395Z,11.67
2019-06-08T17:49:16.706Z,15.70
2019-06-08T17:51:45.964Z,13.70
2019-06-08T17:54:16.034Z,15.50
2019-06-08T17:56:45.462Z,14.50
2019-06-08T17:59:14.778Z,15.17
2019-06-08T18:01:44.094Z,11.80
2019-06-08T18:04:13.488Z,9.40
2019-06-08T18:06:43.399Z,16.07
2019-06-08T18:09:13.749Z,11.90
2019-06-08T18:11:45.011Z,13.37
2019-06-08T18:14:14.637Z,12.53
2019-06-08T18:16:45.217Z,12.70
2019-06-08T18:19:28.262Z,12.97
2019-06-08T18:22:04.729Z,15.43
2019-06-08T18:24:28.727Z,11.90
2019-06-08T18:26:58.718Z,13.57
2019-06-08T18:29:28.047Z,10.47
2019-06-08T18:31:58.189Z,17.70
2019-06-08T18:34:28.744Z,13.03
2019-06-08T18:36:58.315Z,14.77
2019-06-08T18:39:27.742Z,11.67
2019-06-08T18:41:58.797Z,15.07
2019-06-08T18:44:28.774Z,10.57
2019-06-08T18:46:58.539Z,15.33
2019-06-08T18:49:31.261Z,19.20
2019-06-08T18:52:00.721Z,13.57
2019-06-08T18:54:30.091Z,9.77
2019-06-08T18:56:59.376Z,18.73
2019-06-08T18:59:29.005Z,14.30
2019-06-08T19:01:58.357Z,10.53
2019-06-08T19:04:30.821Z,12.27
2019-06-08T19:07:03.293Z,11.60
2019-06-08T19:09:33.413Z,15.00
2019-06-08T19:12:03.002Z,11.17
2019-06-08T19:14:32.480Z,13.83
2019-06-08T19:17:01.984Z,10.77
2019-06-08T19:19:31.672Z,13.13
2019-06-08T19:22:01.283Z,15.93
2019-06-08T19:24:30.523Z,13.60
2019-06-08T19:27:00.191Z,16.07
2019-06-08T19:29:29.466Z,17.40
2019-06-08T19:32:00.749Z,16.70
2019-06-08T19:34:33.153Z,14.13
2019-06-08T19:37:01.607Z,13.20
2019-06-08T19:39:30.921Z,13.37
2019-06-08T19:42:00.227Z,12.47
2019-06-08T19:44:29.786Z,12.80
2019-06-08T19:46:59.047Z,12.03
2019-06-08T19:49:28.403Z,17.23
2019-06-08T19:51:58.297Z,16.77
2019-06-08T19:54:27.553Z,13.33
2019-06-08T19:56:59.460Z,13.70
2019-06-08T19:59:28.962Z,14.23
2019-06-08T20:02:01.905Z,12.33
2019-06-08T20:04:31.923Z,15.00
2019-06-08T20:07:04.485Z,11.87
2019-06-08T20:09:34.385Z,17.27
2019-06-08T20:12:08.132Z,12.80
2019-06-08T20:14:37.474Z,12.20
2019-06-08T20:17:08.121Z,16.33
2019-06-08T20:19:37.523Z,11.87
2019-06-08T20:22:07.547Z,11.27
2019-06-08T20:24:37.964Z,14.23
2019-06-08T20:27:07.724Z,10.67
2019-06-08T20:29:38.250Z,14.77
2019-06-08T20:32:08.482Z,14.13
2019-06-08T20:34:38.305Z,14.30
2019-06-08T20:37:08.087Z,11.60
2019-06-08T20:39:38.285Z,11.70
2019-06-08T20:42:11.714Z,14.17
2019-06-08T20:44:38.972Z,14.23
2019-06-08T20:47:08.569Z,11.40
2019-06-08T20:49:38.326Z,17.87
2019-06-08T20:52:08.526Z,16.43
2019-06-08T20:54:38.180Z,11.37
2019-06-08T20:57:07.788Z,13.37
2019-06-08T20:59:39.503Z,10.50
2019-06-08T21:02:08.542Z,12.73
2019-06-08T21:04:38.469Z,12.23
2019-06-08T21:07:08.281Z,14.47
2019-06-08T21:09:37.820Z,12.43
2019-06-08T21:12:07.390Z,14.73
2019-06-08T21:14:37.960Z,15.40
2019-06-08T21:17:07.808Z,9.93
2019-06-08T21:19:37.278Z,14.13
2019-06-08T21:22:08.307Z,12.40
2019-06-08T21:24:38.154Z,11.03
2019-06-08T21:27:08.307Z,11.07
2019-06-08T21:29:47.408Z,17.27
2019-06-08T21:32:08.743Z,13.00
2019-06-08T21:34:38.153Z,18.13
2019-06-08T21:37:09.194Z,15.73
2019-06-08T21:39:39.108Z,14.57
2019-06-08T21:42:08.654Z,14.10
2019-06-08T21:44:38.131Z,14.17
2019-06-08T21:47:07.994Z,11.57
2019-06-08T21:49:38.380Z,11.97
2019-06-08T21:52:07.955Z,14.07
2019-06-08T21:54:37.664Z,14.57
2019-06-08T21:57:09.527Z,10.80
2019-06-08T21:59:38.065Z,12.10
2019-06-08T22:02:08.337Z,15.60
2019-06-08T22:04:37.667Z,12.10
2019-06-08T22:07:07.193Z,13.43
2019-06-08T22:09:37.517Z,12.40
2019-06-08T22:12:07.271Z,13.27
2019-06-08T22:14:37.851Z,13.13
2019-06-08T22:17:07.881Z,9.87
2019-06-08T22:19:38.093Z,15.13
2019-06-08T22:22:08.377Z,14.57
2019-06-08T22:24:38.558Z,11.67
2019-06-08T22:27:07.938Z,11.93
2019-06-08T22:29:38.298Z,11.57
2019-06-08T22:32:07.899Z,11.50
2019-06-08T22:34:37.346Z,12.47
2019-06-08T22:37:08.604Z,14.67
2019-06-08T22:39:39.922Z,14.00
2019-06-08T22:42:09.139Z,7.90
2019-06-08T22:44:38.463Z,13.43
2019-06-08T22:47:08.251Z,13.33
2019-06-08T22:49:38.468Z,12.90
2019-06-08T22:52:08.369Z,14.03
2019-06-08T22:54:38.426Z,9.57
2019-06-08T22:57:08.195Z,12.80
2019-06-08T22:59:37.702Z,8.80
2019-06-08T23:02:09.081Z,16.27
2019-06-08T23:04:37.972Z,11.63
2019-06-08T23:07:10.803Z,13.73
2019-06-08T23:09:38.241Z,10.80
2019-06-08T23:12:09.438Z,15.37
2019-06-08T23:14:38.493Z,9.03
2019-06-08T23:17:08.629Z,14.23
2019-06-08T23:19:38.302Z,13.30
2019-06-08T23:22:08.359Z,12.63
2019-06-08T23:24:38.370Z,13.50
2019-06-08T23:27:07.729Z,13.80
2019-06-08T23:29:38.138Z,13.20
2019-06-08T23:32:11.514Z,13.27
2019-06-08T23:34:38.620Z,11.77
2019-06-08T23:37:12.498Z,12.67
2019-06-08T23:39:38.881Z,11.03
2019-06-08T23:42:08.571Z,9.73
2019-06-08T23:44:37.881Z,11.87
2019-06-08T23:47:08.141Z,12.93
2019-06-08T23:49:38.048Z,17.73
2019-06-08T23:52:11.279Z,14.20
2019-06-08T23:54:38.752Z,12.53
2019-06-08T23:57:10.107Z,17.20
2019-06-08T23:59:38.900Z,17.17
